sensor_id;sensor_type;location;lat;lon;timestamp;temperature;humidity
2623;DHT22;1321;48.690;9.022;2023-04-25T00:00:39;11.10;99.90
2623;DHT22;1321;48.690;9.022;2023-04-25T00:03:08;11.10;99.90
2623;DHT22;1321;48.690;9.022;2023-04-25T00:05:37;11.10;99.90
2623;DHT22;1321;48.690;9.022;2023-04-25T00:08:06;11.00;99.90
2623;DHT22;1321;48.690;9.022;2023-04-25T00:10:35;11.00;99.90
2623;DHT22;1321;48.690;9.022;2023-04-25T00:13:03;11.00;99.90
2623;DHT22;1321;48.690;9.022;2023-04-25T00:15:31;11.00;99.90
2623;DHT22;1321;48.690;9.022;2023-04-25T00:17:59;11.00;99.90
2623;DHT22;1321;48.690;9.022;2023-04-25T00:20:28;11.00;99.90
2623;DHT22;1321;48.690;9.022;2023-04-25T00:22:58;11.00;99.90
2623;DHT22;1321;48.690;9.022;2023-04-25T00:25:26;11.00;99.90
2623;DHT22;1321;48.690;9.022;2023-04-25T00:27:54;11.00;99.90
2623;DHT22;1321;48.690;9.022;2023-04-25T00:30:22;11.10;99.90
2623;DHT22;1321;48.690;9.022;2023-04-25T00:32:50;11.10;99.90
2623;DHT22;1321;48.690;9.022;2023-04-25T00:35:19;11.00;99.90
2623;DHT22;1321;48.690;9.022;2023-04-25T00:37:47;11.00;99.90
2623;DHT22;1321;48.690;9.022;2023-04-25T00:40:17;11.10;99.90
2623;DHT22;1321;48.690;9.022;2023-04-25T00:42:46;11.10;99.90
2623;DHT22;1321;48.690;9.022;2023-04-25T00:45:15;11.00;99.90
2623;DHT22;1321;48.690;9.022;2023-04-25T00:47:45;11.10;99.90
2623;DHT22;1321;48.690;9.022;2023-04-25T00:50:14;11.10;99.90
2623;DHT22;1321;48.690;9.022;2023-04-25T00:52:44;11.10;99.90
2623;DHT22;1321;48.690;9.022;2023-04-25T00:55:13;11.10;99.90
2623;DHT22;1321;48.690;9.022;2023-04-25T00:57:44;11.10;99.90
2623;DHT22;1321;48.690;9.022;2023-04-25T01:00:12;11.10;99.90
2623;DHT22;1321;48.690;9.022;2023-04-25T01:02:41;11.00;99.90
2623;DHT22;1321;48.690;9.022;2023-04-25T01:05:10;11.00;99.90
2623;DHT22;1321;48.690;9.022;2023-04-25T01:07:40;11.00;99.90
2623;DHT22;1321;48.690;9.022;2023-04-25T01:10:08;11.10;99.90
2623;DHT22;1321;48.690;9.022;2023-04-25T01:12:37;11.10;99.90
2623;DHT22;1321;48.690;9.022;2023-04-25T01:15:07;11.10;99.90
2623;DHT22;1321;48.690;9.022;2023-04-25T01:17:35;11.00;99.90
2623;DHT22;1321;48.690;9.022;2023-04-25T01:20:05;11.00;99.90
2623;DHT22;1321;48.690;9.022;2023-04-25T01:22:35;11.00;99.90
2623;DHT22;1321;48.690;9.022;2023-04-25T01:25:04;11.00;99.90
2623;DHT22;1321;48.690;9.022;2023-04-25T01:27:33;10.90;99.90
2623;DHT22;1321;48.690;9.022;2023-04-25T01:30:01;10.80;99.90
2623;DHT22;1321;48.690;9.022;2023-04-25T01:32:30;10.70;99.90
2623;DHT22;1321;48.690;9.022;2023-04-25T01:35:05;10.70;99.90
2623;DHT22;1321;48.690;9.022;2023-04-25T01:37:38;10.70;99.90
2623;DHT22;1321;48.690;9.022;2023-04-25T01:40:08;10.60;99.90
2623;DHT22;1321;48.690;9.022;2023-04-25T01:42:38;10.50;99.90
2623;DHT22;1321;48.690;9.022;2023-04-25T01:45:08;10.60;99.90
2623;DHT22;1321;48.690;9.022;2023-04-25T01:47:38;10.50;99.90
2623;DHT22;1321;48.690;9.022;2023-04-25T01:50:09;10.50;99.90
2623;DHT22;1321;48.690;9.022;2023-04-25T01:52:39;10.50;99.90
2623;DHT22;1321;48.690;9.022;2023-04-25T01:55:08;10.50;99.90
2623;DHT22;1321;48.690;9.022;2023-04-25T01:57:36;10.40;99.90
2623;DHT22;1321;48.690;9.022;2023-04-25T02:00:06;10.40;99.90
2623;DHT22;1321;48.690;9.022;2023-04-25T02:02:35;10.40;99.90
2623;DHT22;1321;48.690;9.022;2023-04-25T02:05:04;10.30;99.90
2623;DHT22;1321;48.690;9.022;2023-04-25T02:07:33;10.40;99.90
2623;DHT22;1321;48.690;9.022;2023-04-25T02:10:03;10.40;99.90
2623;DHT22;1321;48.690;9.022;2023-04-25T02:12:31;10.30;99.90
2623;DHT22;1321;48.690;9.022;2023-04-25T02:14:59;10.30;1.00
2623;DHT22;1321;48.690;9.022;2023-04-25T02:17:27;10.30;1.00
2623;DHT22;1321;48.690;9.022;2023-04-25T02:19:55;10.30;1.00
2623;DHT22;1321;48.690;9.022;2023-04-25T02:22:23;10.40;99.90
2623;DHT22;1321;48.690;9.022;2023-04-25T02:24:53;10.30;99.90
2623;DHT22;1321;48.690;9.022;2023-04-25T02:27:23;10.40;99.90
2623;DHT22;1321;48.690;9.022;2023-04-25T02:29:51;10.40;99.90
2623;DHT22;1321;48.690;9.022;2023-04-25T02:32:19;10.30;1.00
2623;DHT22;1321;48.690;9.022;2023-04-25T02:34:47;10.30;99.90
2623;DHT22;1321;48.690;9.022;2023-04-25T02:37:16;10.30;99.90
2623;DHT22;1321;48.690;9.022;2023-04-25T02:39:44;10.30;99.90
2623;DHT22;1321;48.690;9.022;2023-04-25T02:42:12;10.30;1.00
2623;DHT22;1321;48.690;9.022;2023-04-25T02:44:41;10.40;99.90
2623;DHT22;1321;48.690;9.022;2023-04-25T02:47:10;10.40;1.00
2623;DHT22;1321;48.690;9.022;2023-04-25T02:49:38;10.30;1.00
2623;DHT22;1321;48.690;9.022;2023-04-25T02:52:06;10.30;99.90
2623;DHT22;1321;48.690;9.022;2023-04-25T02:54:35;10.30;1.00
2623;DHT22;1321;48.690;9.022;2023-04-25T02:57:03;10.30;99.90
2623;DHT22;1321;48.690;9.022;2023-04-25T02:59:32;10.30;99.90
2623;DHT22;1321;48.690;9.022;2023-04-25T03:02:02;10.30;99.90
2623;DHT22;1321;48.690;9.022;2023-04-25T03:04:30;10.30;99.90
2623;DHT22;1321;48.690;9.022;2023-04-25T03:06:58;10.20;1.00
2623;DHT22;1321;48.690;9.022;2023-04-25T03:09:27;10.20;1.00
2623;DHT22;1321;48.690;9.022;2023-04-25T03:11:55;10.30;1.00
2623;DHT22;1321;48.690;9.022;2023-04-25T03:14:23;10.20;1.00
2623;DHT22;1321;48.690;9.022;2023-04-25T03:16:52;10.20;1.00
2623;DHT22;1321;48.690;9.022;2023-04-25T03:19:21;10.30;1.00
2623;DHT22;1321;48.690;9.022;2023-04-25T03:21:50;10.30;1.00
2623;DHT22;1321;48.690;9.022;2023-04-25T03:24:18;10.30;1.00
2623;DHT22;1321;48.690;9.022;2023-04-25T03:26:46;10.30;1.00
2623;DHT22;1321;48.690;9.022;2023-04-25T03:29:14;10.30;1.00
2623;DHT22;1321;48.690;9.022;2023-04-25T03:31:42;10.40;99.90
2623;DHT22;1321;48.690;9.022;2023-04-25T03:34:11;10.30;99.90
2623;DHT22;1321;48.690;9.022;2023-04-25T03:36:42;10.40;99.90
2623;DHT22;1321;48.690;9.022;2023-04-25T03:39:10;10.40;99.90
2623;DHT22;1321;48.690;9.022;2023-04-25T03:41:38;10.30;99.90
2623;DHT22;1321;48.690;9.022;2023-04-25T03:44:06;10.30;99.90
2623;DHT22;1321;48.690;9.022;2023-04-25T03:46:35;10.20;99.90
2623;DHT22;1321;48.690;9.022;2023-04-25T03:49:03;10.20;99.90
2623;DHT22;1321;48.690;9.022;2023-04-25T03:51:31;10.30;99.90
2623;DHT22;1321;48.690;9.022;2023-04-25T03:54:01;10.30;99.90
2623;DHT22;1321;48.690;9.022;2023-04-25T03:56:29;10.20;99.90
2623;DHT22;1321;48.690;9.022;2023-04-25T03:58:58;10.20;99.90
2623;DHT22;1321;48.690;9.022;2023-04-25T04:01:28;10.30;99.90
2623;DHT22;1321;48.690;9.022;2023-04-25T04:03:56;10.30;99.90
2623;DHT22;1321;48.690;9.022;2023-04-25T04:06:25;10.30;99.90
2623;DHT22;1321;48.690;9.022;2023-04-25T04:08:53;10.20;99.90
2623;DHT22;1321;48.690;9.022;2023-04-25T04:11:23;10.20;1.00
2623;DHT22;1321;48.690;9.022;2023-04-25T04:13:51;10.20;1.00
2623;DHT22;1321;48.690;9.022;2023-04-25T04:16:19;10.20;99.90
2623;DHT22;1321;48.690;9.022;2023-04-25T04:18:48;10.20;1.00
2623;DHT22;1321;48.690;9.022;2023-04-25T04:21:16;10.10;1.00
2623;DHT22;1321;48.690;9.022;2023-04-25T04:23:44;10.10;1.00
2623;DHT22;1321;48.690;9.022;2023-04-25T04:26:13;10.10;1.00
2623;DHT22;1321;48.690;9.022;2023-04-25T04:28:44;10.10;1.00
2623;DHT22;1321;48.690;9.022;2023-04-25T04:31:12;10.00;1.00
2623;DHT22;1321;48.690;9.022;2023-04-25T04:33:43;10.00;1.00
2623;DHT22;1321;48.690;9.022;2023-04-25T04:36:12;10.00;1.00
2623;DHT22;1321;48.690;9.022;2023-04-25T04:38:41;10.00;1.00
2623;DHT22;1321;48.690;9.022;2023-04-25T04:41:09;9.90;1.00
2623;DHT22;1321;48.690;9.022;2023-04-25T04:43:37;9.90;1.00
2623;DHT22;1321;48.690;9.022;2023-04-25T04:46:08;10.00;1.00
2623;DHT22;1321;48.690;9.022;2023-04-25T04:48:37;10.00;1.00
2623;DHT22;1321;48.690;9.022;2023-04-25T04:51:07;9.90;1.00
2623;DHT22;1321;48.690;9.022;2023-04-25T04:53:35;9.90;1.00
2623;DHT22;1321;48.690;9.022;2023-04-25T04:56:03;9.90;1.00
2623;DHT22;1321;48.690;9.022;2023-04-25T04:58:32;9.90;1.00
2623;DHT22;1321;48.690;9.022;2023-04-25T05:01:00;10.00;1.00
2623;DHT22;1321;48.690;9.022;2023-04-25T05:03:30;10.00;1.00
2623;DHT22;1321;48.690;9.022;2023-04-25T05:05:58;10.00;1.00
2623;DHT22;1321;48.690;9.022;2023-04-25T05:08:26;10.10;1.00
2623;DHT22;1321;48.690;9.022;2023-04-25T05:10:54;10.10;1.00
2623;DHT22;1321;48.690;9.022;2023-04-25T05:13:23;10.20;1.00
2623;DHT22;1321;48.690;9.022;2023-04-25T05:15:51;10.10;1.00
2623;DHT22;1321;48.690;9.022;2023-04-25T05:18:21;10.20;1.00
2623;DHT22;1321;48.690;9.022;2023-04-25T05:20:52;10.20;1.00
2623;DHT22;1321;48.690;9.022;2023-04-25T05:23:21;10.20;1.00
2623;DHT22;1321;48.690;9.022;2023-04-25T05:25:56;10.20;1.00
2623;DHT22;1321;48.690;9.022;2023-04-25T05:28:29;10.20;1.00
2623;DHT22;1321;48.690;9.022;2023-04-25T05:30:57;10.20;1.00
2623;DHT22;1321;48.690;9.022;2023-04-25T05:33:26;10.20;1.00
2623;DHT22;1321;48.690;9.022;2023-04-25T05:35:55;10.20;1.00
2623;DHT22;1321;48.690;9.022;2023-04-25T05:38:23;10.20;1.00
2623;DHT22;1321;48.690;9.022;2023-04-25T05:40:51;10.20;1.00
2623;DHT22;1321;48.690;9.022;2023-04-25T05:43:19;10.30;1.00
2623;DHT22;1321;48.690;9.022;2023-04-25T05:45:48;10.30;1.00
2623;DHT22;1321;48.690;9.022;2023-04-25T05:48:16;10.30;1.00
2623;DHT22;1321;48.690;9.022;2023-04-25T05:50:44;10.30;1.00
2623;DHT22;1321;48.690;9.022;2023-04-25T05:53:14;10.20;1.00
2623;DHT22;1321;48.690;9.022;2023-04-25T05:55:42;10.30;1.00
2623;DHT22;1321;48.690;9.022;2023-04-25T05:58:10;10.20;1.00
2623;DHT22;1321;48.690;9.022;2023-04-25T06:00:38;10.20;1.00
2623;DHT22;1321;48.690;9.022;2023-04-25T06:03:08;10.30;1.00
2623;DHT22;1321;48.690;9.022;2023-04-25T06:05:37;10.30;1.00
2623;DHT22;1321;48.690;9.022;2023-04-25T06:08:05;10.30;1.00
2623;DHT22;1321;48.690;9.022;2023-04-25T06:10:35;10.30;1.00
2623;DHT22;1321;48.690;9.022;2023-04-25T06:13:04;10.30;1.00
2623;DHT22;1321;48.690;9.022;2023-04-25T06:15:33;10.40;1.00
2623;DHT22;1321;48.690;9.022;2023-04-25T06:18:01;10.40;1.00
2623;DHT22;1321;48.690;9.022;2023-04-25T06:20:30;10.40;14.60
2623;DHT22;1321;48.690;9.022;2023-04-25T06:22:58;10.50;1.00
2623;DHT22;1321;48.690;9.022;2023-04-25T06:25:26;10.60;1.00
2623;DHT22;1321;48.690;9.022;2023-04-25T06:27:55;10.60;1.00
2623;DHT22;1321;48.690;9.022;2023-04-25T06:30:24;10.60;1.00
2623;DHT22;1321;48.690;9.022;2023-04-25T06:32:52;10.60;1.00
2623;DHT22;1321;48.690;9.022;2023-04-25T06:35:21;10.60;1.00
2623;DHT22;1321;48.690;9.022;2023-04-25T06:37:49;10.50;1.00
2623;DHT22;1321;48.690;9.022;2023-04-25T06:40:17;10.60;1.00
2623;DHT22;1321;48.690;9.022;2023-04-25T06:42:45;10.50;1.00
2623;DHT22;1321;48.690;9.022;2023-04-25T06:45:14;10.50;1.00
2623;DHT22;1321;48.690;9.022;2023-04-25T06:47:43;10.50;1.00
2623;DHT22;1321;48.690;9.022;2023-04-25T06:50:11;10.40;1.00
2623;DHT22;1321;48.690;9.022;2023-04-25T06:52:39;10.40;1.00
2623;DHT22;1321;48.690;9.022;2023-04-25T06:55:08;10.40;1.00
2623;DHT22;1321;48.690;9.022;2023-04-25T06:57:37;10.40;1.00
2623;DHT22;1321;48.690;9.022;2023-04-25T07:00:06;10.40;1.00
2623;DHT22;1321;48.690;9.022;2023-04-25T07:02:37;10.40;1.00
2623;DHT22;1321;48.690;9.022;2023-04-25T07:05:06;10.40;1.00
2623;DHT22;1321;48.690;9.022;2023-04-25T07:07:34;10.30;1.00
2623;DHT22;1321;48.690;9.022;2023-04-25T07:10:02;10.40;1.00
2623;DHT22;1321;48.690;9.022;2023-04-25T07:12:31;10.40;1.00
2623;DHT22;1321;48.690;9.022;2023-04-25T07:14:59;10.40;1.00
2623;DHT22;1321;48.690;9.022;2023-04-25T07:17:32;10.40;1.00
2623;DHT22;1321;48.690;9.022;2023-04-25T07:20:03;10.30;1.00
2623;DHT22;1321;48.690;9.022;2023-04-25T07:22:32;10.40;1.00
2623;DHT22;1321;48.690;9.022;2023-04-25T07:25:00;10.50;1.00
2623;DHT22;1321;48.690;9.022;2023-04-25T07:27:29;10.50;1.00
2623;DHT22;1321;48.690;9.022;2023-04-25T07:29:57;10.50;1.00
2623;DHT22;1321;48.690;9.022;2023-04-25T07:32:26;10.40;1.00
2623;DHT22;1321;48.690;9.022;2023-04-25T07:34:54;10.40;1.00
2623;DHT22;1321;48.690;9.022;2023-04-25T07:37:24;10.40;1.00
2623;DHT22;1321;48.690;9.022;2023-04-25T07:39:53;10.30;1.00
2623;DHT22;1321;48.690;9.022;2023-04-25T07:42:21;10.10;99.90
2623;DHT22;1321;48.690;9.022;2023-04-25T07:44:49;10.30;99.90
2623;DHT22;1321;48.690;9.022;2023-04-25T07:47:18;10.30;1.00
2623;DHT22;1321;48.690;9.022;2023-04-25T07:49:47;10.30;1.00
2623;DHT22;1321;48.690;9.022;2023-04-25T07:52:15;10.20;99.90
2623;DHT22;1321;48.690;9.022;2023-04-25T07:54:45;10.30;99.90
2623;DHT22;1321;48.690;9.022;2023-04-25T07:57:14;10.30;99.90
2623;DHT22;1321;48.690;9.022;2023-04-25T07:59:43;10.20;99.90
2623;DHT22;1321;48.690;9.022;2023-04-25T08:02:11;10.20;99.90
2623;DHT22;1321;48.690;9.022;2023-04-25T08:04:40;10.20;99.90
2623;DHT22;1321;48.690;9.022;2023-04-25T08:07:08;10.20;99.90
2623;DHT22;1321;48.690;9.022;2023-04-25T08:09:37;10.20;99.90
2623;DHT22;1321;48.690;9.022;2023-04-25T08:12:07;10.20;99.90
2623;DHT22;1321;48.690;9.022;2023-04-25T08:14:35;10.30;99.90
2623;DHT22;1321;48.690;9.022;2023-04-25T08:17:04;10.20;99.90
2623;DHT22;1321;48.690;9.022;2023-04-25T08:19:32;10.30;99.90
2623;DHT22;1321;48.690;9.022;2023-04-25T08:22:00;10.30;99.90
2623;DHT22;1321;48.690;9.022;2023-04-25T08:24:28;10.20;99.90
2623;DHT22;1321;48.690;9.022;2023-04-25T08:26:57;10.20;99.90
2623;DHT22;1321;48.690;9.022;2023-04-25T08:29:27;10.20;1.00
2623;DHT22;1321;48.690;9.022;2023-04-25T08:31:55;10.30;99.90
2623;DHT22;1321;48.690;9.022;2023-04-25T08:34:23;10.20;99.90
2623;DHT22;1321;48.690;9.022;2023-04-25T08:36:52;10.20;99.90
2623;DHT22;1321;48.690;9.022;2023-04-25T08:39:20;10.20;1.00
2623;DHT22;1321;48.690;9.022;2023-04-25T08:41:49;10.30;99.90
2623;DHT22;1321;48.690;9.022;2023-04-25T08:44:17;10.20;99.90
2623;DHT22;1321;48.690;9.022;2023-04-25T08:46:47;10.10;99.90
2623;DHT22;1321;48.690;9.022;2023-04-25T08:49:17;10.10;99.90
2623;DHT22;1321;48.690;9.022;2023-04-25T08:51:46;10.10;99.90
2623;DHT22;1321;48.690;9.022;2023-04-25T08:54:15;10.10;99.90
2623;DHT22;1321;48.690;9.022;2023-04-25T08:57:01;10.10;99.90
2623;DHT22;1321;48.690;9.022;2023-04-25T08:59:32;10.00;99.90
2623;DHT22;1321;48.690;9.022;2023-04-25T09:02:05;10.00;99.90
2623;DHT22;1321;48.690;9.022;2023-04-25T09:04:33;10.00;99.90
2623;DHT22;1321;48.690;9.022;2023-04-25T09:07:02;10.00;99.90
2623;DHT22;1321;48.690;9.022;2023-04-25T09:09:30;10.00;99.90
2623;DHT22;1321;48.690;9.022;2023-04-25T09:11:59;9.90;99.90
2623;DHT22;1321;48.690;9.022;2023-04-25T09:14:28;9.90;99.90
2623;DHT22;1321;48.690;9.022;2023-04-25T09:17:02;10.00;99.90
2623;DHT22;1321;48.690;9.022;2023-04-25T09:19:34;10.00;99.90
2623;DHT22;1321;48.690;9.022;2023-04-25T09:22:08;10.00;99.90
2623;DHT22;1321;48.690;9.022;2023-04-25T09:24:37;10.00;34.10
2623;DHT22;1321;48.690;9.022;2023-04-25T09:27:07;10.00;99.90
2623;DHT22;1321;48.690;9.022;2023-04-25T09:29:37;10.00;99.90
2623;DHT22;1321;48.690;9.022;2023-04-25T09:32:17;9.90;99.90
2623;DHT22;1321;48.690;9.022;2023-04-25T09:34:49;9.90;99.90
2623;DHT22;1321;48.690;9.022;2023-04-25T09:37:18;9.90;99.90
2623;DHT22;1321;48.690;9.022;2023-04-25T09:39:47;9.90;99.90
2623;DHT22;1321;48.690;9.022;2023-04-25T09:42:17;9.90;99.90
2623;DHT22;1321;48.690;9.022;2023-04-25T09:44:45;9.90;99.90
2623;DHT22;1321;48.690;9.022;2023-04-25T09:47:15;9.90;99.90
2623;DHT22;1321;48.690;9.022;2023-04-25T09:49:44;9.80;99.90
2623;DHT22;1321;48.690;9.022;2023-04-25T09:52:18;9.80;99.90
2623;DHT22;1321;48.690;9.022;2023-04-25T09:54:48;9.90;99.90
2623;DHT22;1321;48.690;9.022;2023-04-25T09:57:18;9.90;99.90
2623;DHT22;1321;48.690;9.022;2023-04-25T09:59:47;9.90;99.90
2623;DHT22;1321;48.690;9.022;2023-04-25T10:02:17;9.90;94.90
2623;DHT22;1321;48.690;9.022;2023-04-25T10:04:48;9.80;97.50
2623;DHT22;1321;48.690;9.022;2023-04-25T10:07:20;9.80;99.90
2623;DHT22;1321;48.690;9.022;2023-04-25T10:09:58;9.80;99.90
2623;DHT22;1321;48.690;9.022;2023-04-25T10:12:27;9.90;60.50
2623;DHT22;1321;48.690;9.022;2023-04-25T10:14:55;9.80;40.50
2623;DHT22;1321;48.690;9.022;2023-04-25T10:17:24;9.90;99.90
2623;DHT22;1321;48.690;9.022;2023-04-25T10:19:54;9.80;21.90
2623;DHT22;1321;48.690;9.022;2023-04-25T10:22:29;9.70;1.00
2623;DHT22;1321;48.690;9.022;2023-04-25T10:24:59;9.70;99.90
2623;DHT22;1321;48.690;9.022;2023-04-25T10:27:30;9.70;99.90
2623;DHT22;1321;48.690;9.022;2023-04-25T10:30:03;9.70;99.90
2623;DHT22;1321;48.690;9.022;2023-04-25T10:32:33;9.80;99.90
2623;DHT22;1321;48.690;9.022;2023-04-25T10:35:11;9.80;99.90
2623;DHT22;1321;48.690;9.022;2023-04-25T10:37:59;9.80;99.90
2623;DHT22;1321;48.690;9.022;2023-04-25T10:40:28;9.80;99.90
2623;DHT22;1321;48.690;9.022;2023-04-25T10:43:35;9.90;1.00
2623;DHT22;1321;48.690;9.022;2023-04-25T10:46:13;9.80;99.90
2623;DHT22;1321;48.690;9.022;2023-04-25T10:48:47;9.90;99.90
2623;DHT22;1321;48.690;9.022;2023-04-25T10:51:21;9.90;17.00
2623;DHT22;1321;48.690;9.022;2023-04-25T10:54:01;9.90;99.90
2623;DHT22;1321;48.690;9.022;2023-04-25T10:56:30;9.80;99.90
2623;DHT22;1321;48.690;9.022;2023-04-25T10:59:07;9.90;1.00
2623;DHT22;1321;48.690;9.022;2023-04-25T11:01:38;9.90;99.90
2623;DHT22;1321;48.690;9.022;2023-04-25T11:04:19;10.00;99.90
2623;DHT22;1321;48.690;9.022;2023-04-25T11:07:03;10.00;99.90
2623;DHT22;1321;48.690;9.022;2023-04-25T11:09:37;10.00;99.90
2623;DHT22;1321;48.690;9.022;2023-04-25T11:12:08;10.00;99.90
2623;DHT22;1321;48.690;9.022;2023-04-25T11:14:36;10.00;1.00
2623;DHT22;1321;48.690;9.022;2023-04-25T11:17:09;10.00;99.90
2623;DHT22;1321;48.690;9.022;2023-04-25T11:19:38;10.10;99.90
2623;DHT22;1321;48.690;9.022;2023-04-25T11:22:07;10.10;1.00
2623;DHT22;1321;48.690;9.022;2023-04-25T11:24:36;10.10;99.90
2623;DHT22;1321;48.690;9.022;2023-04-25T11:27:05;10.10;99.90
2623;DHT22;1321;48.690;9.022;2023-04-25T11:29:34;10.00;99.90
2623;DHT22;1321;48.690;9.022;2023-04-25T11:32:03;9.90;1.00
2623;DHT22;1321;48.690;9.022;2023-04-25T11:34:32;10.00;99.90
2623;DHT22;1321;48.690;9.022;2023-04-25T11:37:01;10.10;99.90
2623;DHT22;1321;48.690;9.022;2023-04-25T11:39:31;10.20;18.00
2623;DHT22;1321;48.690;9.022;2023-04-25T11:42:00;10.20;99.90
2623;DHT22;1321;48.690;9.022;2023-04-25T11:44:31;10.30;99.90
2623;DHT22;1321;48.690;9.022;2023-04-25T11:46:59;10.30;99.90
2623;DHT22;1321;48.690;9.022;2023-04-25T11:49:30;10.30;1.00
2623;DHT22;1321;48.690;9.022;2023-04-25T11:51:58;10.30;99.90
2623;DHT22;1321;48.690;9.022;2023-04-25T11:54:27;10.40;99.90
2623;DHT22;1321;48.690;9.022;2023-04-25T11:56:55;10.40;99.90
2623;DHT22;1321;48.690;9.022;2023-04-25T11:59:25;10.50;1.00
2623;DHT22;1321;48.690;9.022;2023-04-25T12:01:54;10.50;99.90
2623;DHT22;1321;48.690;9.022;2023-04-25T12:04:25;10.60;99.90
2623;DHT22;1321;48.690;9.022;2023-04-25T12:06:54;10.80;99.90
2623;DHT22;1321;48.690;9.022;2023-04-25T12:09:29;10.80;99.90
2623;DHT22;1321;48.690;9.022;2023-04-25T12:11:59;10.90;1.00
2623;DHT22;1321;48.690;9.022;2023-04-25T12:14:34;11.00;1.00
2623;DHT22;1321;48.690;9.022;2023-04-25T12:17:04;11.00;1.00
2623;DHT22;1321;48.690;9.022;2023-04-25T12:19:36;11.00;1.00
2623;DHT22;1321;48.690;9.022;2023-04-25T12:22:19;11.00;99.90
2623;DHT22;1321;48.690;9.022;2023-04-25T12:24:49;10.80;99.90
2623;DHT22;1321;48.690;9.022;2023-04-25T12:27:20;10.90;1.00
2623;DHT22;1321;48.690;9.022;2023-04-25T12:29:54;10.90;99.90
2623;DHT22;1321;48.690;9.022;2023-04-25T12:32:22;10.80;99.90
2623;DHT22;1321;48.690;9.022;2023-04-25T12:34:51;10.80;99.90
2623;DHT22;1321;48.690;9.022;2023-04-25T12:37:19;10.70;99.90
2623;DHT22;1321;48.690;9.022;2023-04-25T12:39:47;10.80;1.00
2623;DHT22;1321;48.690;9.022;2023-04-25T12:42:16;10.80;1.00
2623;DHT22;1321;48.690;9.022;2023-04-25T12:44:44;10.70;15.40
2623;DHT22;1321;48.690;9.022;2023-04-25T12:47:14;10.50;13.60
2623;DHT22;1321;48.690;9.022;2023-04-25T12:49:43;10.50;99.90
2623;DHT22;1321;48.690;9.022;2023-04-25T12:52:11;10.50;1.00
2623;DHT22;1321;48.690;9.022;2023-04-25T12:54:39;10.60;99.90
2623;DHT22;1321;48.690;9.022;2023-04-25T12:57:07;10.70;99.90
2623;DHT22;1321;48.690;9.022;2023-04-25T12:59:35;10.70;99.90
2623;DHT22;1321;48.690;9.022;2023-04-25T13:02:03;10.80;98.30
2623;DHT22;1321;48.690;9.022;2023-04-25T13:04:33;10.80;99.90
2623;DHT22;1321;48.690;9.022;2023-04-25T13:07:01;10.80;91.90
2623;DHT22;1321;48.690;9.022;2023-04-25T13:09:30;10.90;99.90
2623;DHT22;1321;48.690;9.022;2023-04-25T13:11:58;11.00;99.90
2623;DHT22;1321;48.690;9.022;2023-04-25T13:14:26;11.00;87.40
2623;DHT22;1321;48.690;9.022;2023-04-25T13:16:54;11.00;49.20
2623;DHT22;1321;48.690;9.022;2023-04-25T13:19:23;11.20;99.90
2623;DHT22;1321;48.690;9.022;2023-04-25T13:21:53;11.20;99.40
2623;DHT22;1321;48.690;9.022;2023-04-25T13:24:22;11.40;16.30
2623;DHT22;1321;48.690;9.022;2023-04-25T13:26:50;11.50;42.00
2623;DHT22;1321;48.690;9.022;2023-04-25T13:29:18;11.50;27.60
2623;DHT22;1321;48.690;9.022;2023-04-25T13:31:46;11.50;1.00
2623;DHT22;1321;48.690;9.022;2023-04-25T13:34:15;11.50;1.00
2623;DHT22;1321;48.690;9.022;2023-04-25T13:36:43;11.60;1.00
2623;DHT22;1321;48.690;9.022;2023-04-25T13:39:12;11.60;1.00
2623;DHT22;1321;48.690;9.022;2023-04-25T13:41:41;11.80;1.00
2623;DHT22;1321;48.690;9.022;2023-04-25T13:44:10;11.90;1.00
2623;DHT22;1321;48.690;9.022;2023-04-25T13:46:38;11.90;1.00
2623;DHT22;1321;48.690;9.022;2023-04-25T13:49:13;12.00;1.00
2623;DHT22;1321;48.690;9.022;2023-04-25T13:51:42;12.00;1.00
2623;DHT22;1321;48.690;9.022;2023-04-25T13:54:11;11.90;1.00
2623;DHT22;1321;48.690;9.022;2023-04-25T13:56:40;11.80;1.00
2623;DHT22;1321;48.690;9.022;2023-04-25T13:59:09;11.80;1.00
2623;DHT22;1321;48.690;9.022;2023-04-25T14:01:38;11.90;1.00
2623;DHT22;1321;48.690;9.022;2023-04-25T14:04:06;11.90;1.00
2623;DHT22;1321;48.690;9.022;2023-04-25T14:06:34;12.00;1.00
2623;DHT22;1321;48.690;9.022;2023-04-25T14:09:03;12.00;1.00
2623;DHT22;1321;48.690;9.022;2023-04-25T14:11:35;12.00;1.00
2623;DHT22;1321;48.690;9.022;2023-04-25T14:14:03;12.10;1.00
2623;DHT22;1321;48.690;9.022;2023-04-25T14:16:31;12.20;1.00
2623;DHT22;1321;48.690;9.022;2023-04-25T14:18:59;12.20;1.00
2623;DHT22;1321;48.690;9.022;2023-04-25T14:21:30;12.30;1.00
2623;DHT22;1321;48.690;9.022;2023-04-25T14:24:00;12.20;1.00
2623;DHT22;1321;48.690;9.022;2023-04-25T14:26:31;12.20;1.00
2623;DHT22;1321;48.690;9.022;2023-04-25T14:29:00;12.10;1.00
2623;DHT22;1321;48.690;9.022;2023-04-25T14:31:29;12.10;1.00
2623;DHT22;1321;48.690;9.022;2023-04-25T14:33:57;12.10;1.00
2623;DHT22;1321;48.690;9.022;2023-04-25T14:36:27;12.10;1.00
2623;DHT22;1321;48.690;9.022;2023-04-25T14:38:58;12.00;1.00
2623;DHT22;1321;48.690;9.022;2023-04-25T14:41:26;11.90;1.00
2623;DHT22;1321;48.690;9.022;2023-04-25T14:43:55;11.90;1.00
2623;DHT22;1321;48.690;9.022;2023-04-25T14:46:25;11.90;1.00
2623;DHT22;1321;48.690;9.022;2023-04-25T14:48:53;12.00;99.90
2623;DHT22;1321;48.690;9.022;2023-04-25T14:51:23;12.00;99.90
2623;DHT22;1321;48.690;9.022;2023-04-25T14:53:51;11.90;99.90
2623;DHT22;1321;48.690;9.022;2023-04-25T14:56:19;11.90;99.90
2623;DHT22;1321;48.690;9.022;2023-04-25T14:58:48;11.90;99.90
2623;DHT22;1321;48.690;9.022;2023-04-25T15:01:16;12.00;99.90
2623;DHT22;1321;48.690;9.022;2023-04-25T15:03:49;12.10;99.90
2623;DHT22;1321;48.690;9.022;2023-04-25T15:06:18;12.10;99.90
2623;DHT22;1321;48.690;9.022;2023-04-25T15:08:46;12.40;99.90
2623;DHT22;1321;48.690;9.022;2023-04-25T15:11:15;12.50;99.90
2623;DHT22;1321;48.690;9.022;2023-04-25T15:13:43;12.60;99.90
2623;DHT22;1321;48.690;9.022;2023-04-25T15:16:11;12.50;99.90
2623;DHT22;1321;48.690;9.022;2023-04-25T15:18:39;12.60;99.90
2623;DHT22;1321;48.690;9.022;2023-04-25T15:21:09;12.60;99.90
2623;DHT22;1321;48.690;9.022;2023-04-25T15:23:37;12.60;99.90
2623;DHT22;1321;48.690;9.022;2023-04-25T15:26:05;12.50;99.90
2623;DHT22;1321;48.690;9.022;2023-04-25T15:28:34;12.40;99.90
2623;DHT22;1321;48.690;9.022;2023-04-25T15:31:02;12.50;99.90
2623;DHT22;1321;48.690;9.022;2023-04-25T15:33:30;12.50;99.90
2623;DHT22;1321;48.690;9.022;2023-04-25T15:35:59;12.50;99.90
2623;DHT22;1321;48.690;9.022;2023-04-25T15:38:31;12.60;99.90
2623;DHT22;1321;48.690;9.022;2023-04-25T15:41:00;12.60;99.90
2623;DHT22;1321;48.690;9.022;2023-04-25T15:43:30;12.50;99.90
2623;DHT22;1321;48.690;9.022;2023-04-25T15:45:58;12.40;99.90
2623;DHT22;1321;48.690;9.022;2023-04-25T15:48:27;12.40;99.90
2623;DHT22;1321;48.690;9.022;2023-04-25T15:50:55;12.40;99.90
2623;DHT22;1321;48.690;9.022;2023-04-25T15:53:23;12.50;99.90
2623;DHT22;1321;48.690;9.022;2023-04-25T15:55:53;12.60;99.90
2623;DHT22;1321;48.690;9.022;2023-04-25T15:58:21;12.60;99.90
2623;DHT22;1321;48.690;9.022;2023-04-25T16:00:49;12.50;99.90
2623;DHT22;1321;48.690;9.022;2023-04-25T16:03:18;12.50;99.90
2623;DHT22;1321;48.690;9.022;2023-04-25T16:05:46;12.40;99.90
2623;DHT22;1321;48.690;9.022;2023-04-25T16:08:15;12.40;99.90
2623;DHT22;1321;48.690;9.022;2023-04-25T16:10:43;12.30;99.90
2623;DHT22;1321;48.690;9.022;2023-04-25T16:13:13;12.30;99.90
2623;DHT22;1321;48.690;9.022;2023-04-25T16:15:41;12.30;99.90
2623;DHT22;1321;48.690;9.022;2023-04-25T16:18:09;12.30;99.90
2623;DHT22;1321;48.690;9.022;2023-04-25T16:20:38;12.30;99.90
2623;DHT22;1321;48.690;9.022;2023-04-25T16:23:07;12.20;99.90